sensor_id;sensor_type;location;lat;lon;timestamp;P1;durP1;ratioP1;P2;durP2;ratioP2
15340;SDS011;7770;52.158;5.372;2024-02-21T00:00:41;17.87;;;7.57;;
15340;SDS011;7770;52.158;5.372;2024-02-21T00:03:27;20.30;;;7.20;;
15340;SDS011;7770;52.158;5.372;2024-02-21T00:06:13;18.77;;;7.27;;
15340;SDS011;7770;52.158;5.372;2024-02-21T00:08:59;19.20;;;6.83;;
15340;SDS011;7770;52.158;5.372;2024-02-21T00:11:45;18.50;;;6.40;;
15340;SDS011;7770;52.158;5.372;2024-02-21T00:14:31;18.87;;;7.40;;
15340;SDS011;7770;52.158;5.372;2024-02-21T00:17:17;17.93;;;7.00;;
15340;SDS011;7770;52.158;5.372;2024-02-21T00:20:03;16.90;;;7.23;;
15340;SDS011;7770;52.158;5.372;2024-02-21T00:22:50;16.97;;;7.50;;
15340;SDS011;7770;52.158;5.372;2024-02-21T00:25:36;19.87;;;7.50;;
15340;SDS011;7770;52.158;5.372;2024-02-21T00:28:22;14.17;;;7.20;;
15340;SDS011;7770;52.158;5.372;2024-02-21T00:31:08;15.33;;;6.73;;
15340;SDS011;7770;52.158;5.372;2024-02-21T00:33:54;16.43;;;6.87;;
15340;SDS011;7770;52.158;5.372;2024-02-21T00:36:40;21.40;;;7.43;;
15340;SDS011;7770;52.158;5.372;2024-02-21T00:39:26;17.63;;;6.90;;
15340;SDS011;7770;52.158;5.372;2024-02-21T00:42:12;15.83;;;7.53;;
15340;SDS011;7770;52.158;5.372;2024-02-21T00:44:58;15.27;;;7.53;;
15340;SDS011;7770;52.158;5.372;2024-02-21T00:47:44;14.57;;;6.70;;
15340;SDS011;7770;52.158;5.372;2024-02-21T00:50:31;15.23;;;6.87;;
15340;SDS011;7770;52.158;5.372;2024-02-21T00:53:17;14.13;;;7.00;;
15340;SDS011;7770;52.158;5.372;2024-02-21T00:56:04;15.80;;;7.10;;
15340;SDS011;7770;52.158;5.372;2024-02-21T00:58:51;14.73;;;6.57;;
15340;SDS011;7770;52.158;5.372;2024-02-21T01:01:37;19.00;;;7.30;;
15340;SDS011;7770;52.158;5.372;2024-02-21T01:04:23;16.23;;;7.20;;
15340;SDS011;7770;52.158;5.372;2024-02-21T01:07:09;12.17;;;7.10;;
15340;SDS011;7770;52.158;5.372;2024-02-21T01:09:55;15.37;;;7.27;;
15340;SDS011;7770;52.158;5.372;2024-02-21T01:12:42;19.57;;;7.47;;
15340;SDS011;7770;52.158;5.372;2024-02-21T01:15:28;17.23;;;7.97;;
15340;SDS011;7770;52.158;5.372;2024-02-21T01:18:14;17.67;;;7.87;;
15340;SDS011;7770;52.158;5.372;2024-02-21T01:21:00;18.97;;;8.57;;
15340;SDS011;7770;52.158;5.372;2024-02-21T01:23:46;16.03;;;8.60;;
15340;SDS011;7770;52.158;5.372;2024-02-21T01:26:32;17.30;;;8.67;;
15340;SDS011;7770;52.158;5.372;2024-02-21T01:29:19;19.60;;;9.20;;
15340;SDS011;7770;52.158;5.372;2024-02-21T01:32:05;18.83;;;8.70;;
15340;SDS011;7770;52.158;5.372;2024-02-21T01:34:51;15.13;;;8.43;;
15340;SDS011;7770;52.158;5.372;2024-02-21T01:37:37;20.07;;;8.93;;
15340;SDS011;7770;52.158;5.372;2024-02-21T01:40:23;15.63;;;8.67;;
15340;SDS011;7770;52.158;5.372;2024-02-21T01:43:16;22.77;;;9.60;;
15340;SDS011;7770;52.158;5.372;2024-02-21T01:46:06;18.67;;;9.70;;
15340;SDS011;7770;52.158;5.372;2024-02-21T01:48:53;16.40;;;9.07;;
15340;SDS011;7770;52.158;5.372;2024-02-21T01:51:40;23.93;;;9.53;;
15340;SDS011;7770;52.158;5.372;2024-02-21T01:54:26;17.60;;;8.87;;
15340;SDS011;7770;52.158;5.372;2024-02-21T01:57:14;18.13;;;9.10;;
15340;SDS011;7770;52.158;5.372;2024-02-21T02:00:00;16.93;;;8.83;;
15340;SDS011;7770;52.158;5.372;2024-02-21T02:02:47;17.67;;;8.73;;
15340;SDS011;7770;52.158;5.372;2024-02-21T02:05:33;20.73;;;9.00;;
15340;SDS011;7770;52.158;5.372;2024-02-21T02:08:19;15.87;;;9.27;;
15340;SDS011;7770;52.158;5.372;2024-02-21T02:11:07;16.93;;;9.10;;
15340;SDS011;7770;52.158;5.372;2024-02-21T02:13:53;20.00;;;8.87;;
15340;SDS011;7770;52.158;5.372;2024-02-21T02:16:39;19.57;;;9.37;;
15340;SDS011;7770;52.158;5.372;2024-02-21T02:19:25;18.20;;;8.63;;
15340;SDS011;7770;52.158;5.372;2024-02-21T02:22:13;21.77;;;9.73;;
15340;SDS011;7770;52.158;5.372;2024-02-21T02:25:07;19.00;;;9.00;;
15340;SDS011;7770;52.158;5.372;2024-02-21T02:27:54;17.03;;;8.93;;
15340;SDS011;7770;52.158;5.372;2024-02-21T02:30:40;20.53;;;9.90;;
15340;SDS011;7770;52.158;5.372;2024-02-21T02:33:26;18.80;;;10.17;;
15340;SDS011;7770;52.158;5.372;2024-02-21T02:36:12;22.60;;;10.00;;
15340;SDS011;7770;52.158;5.372;2024-02-21T02:38:58;20.43;;;10.03;;
15340;SDS011;7770;52.158;5.372;2024-02-21T02:41:44;18.43;;;9.63;;
15340;SDS011;7770;52.158;5.372;2024-02-21T02:44:30;17.37;;;10.17;;
15340;SDS011;7770;52.158;5.372;2024-02-21T02:47:16;18.30;;;9.77;;
15340;SDS011;7770;52.158;5.372;2024-02-21T02:50:02;16.97;;;9.93;;
15340;SDS011;7770;52.158;5.372;2024-02-21T02:52:49;19.73;;;10.33;;
15340;SDS011;7770;52.158;5.372;2024-02-21T02:55:35;15.27;;;10.00;;
15340;SDS011;7770;52.158;5.372;2024-02-21T02:58:22;16.07;;;10.03;;
15340;SDS011;7770;52.158;5.372;2024-02-21T03:01:08;18.80;;;10.60;;
15340;SDS011;7770;52.158;5.372;2024-02-21T03:03:54;20.17;;;11.50;;
15340;SDS011;7770;52.158;5.372;2024-02-21T03:06:40;20.20;;;10.70;;
15340;SDS011;7770;52.158;5.372;2024-02-21T03:09:26;21.07;;;11.43;;
15340;SDS011;7770;52.158;5.372;2024-02-21T03:12:13;20.17;;;11.63;;
15340;SDS011;7770;52.158;5.372;2024-02-21T03:15:04;20.93;;;11.20;;
15340;SDS011;7770;52.158;5.372;2024-02-21T03:17:51;22.03;;;11.00;;
15340;SDS011;7770;52.158;5.372;2024-02-21T03:20:37;18.07;;;10.70;;
15340;SDS011;7770;52.158;5.372;2024-02-21T03:23:23;21.40;;;10.70;;
15340;SDS011;7770;52.158;5.372;2024-02-21T03:26:09;22.17;;;10.50;;
15340;SDS011;7770;52.158;5.372;2024-02-21T03:28:55;21.33;;;11.33;;
15340;SDS011;7770;52.158;5.372;2024-02-21T03:31:41;22.70;;;11.83;;
15340;SDS011;7770;52.158;5.372;2024-02-21T03:34:28;19.27;;;10.93;;
15340;SDS011;7770;52.158;5.372;2024-02-21T03:37:14;19.70;;;11.50;;
15340;SDS011;7770;52.158;5.372;2024-02-21T03:40:00;26.53;;;11.87;;
15340;SDS011;7770;52.158;5.372;2024-02-21T03:42:47;24.07;;;12.27;;
15340;SDS011;7770;52.158;5.372;2024-02-21T03:45:33;19.77;;;11.43;;
15340;SDS011;7770;52.158;5.372;2024-02-21T03:48:19;21.27;;;11.53;;
15340;SDS011;7770;52.158;5.372;2024-02-21T03:51:05;18.83;;;11.20;;
15340;SDS011;7770;52.158;5.372;2024-02-21T03:53:52;20.17;;;11.07;;
15340;SDS011;7770;52.158;5.372;2024-02-21T03:56:38;18.57;;;10.53;;
15340;SDS011;7770;52.158;5.372;2024-02-21T03:59:25;20.87;;;10.53;;
15340;SDS011;7770;52.158;5.372;2024-02-21T04:02:11;16.27;;;11.00;;
15340;SDS011;7770;52.158;5.372;2024-02-21T04:04:57;19.77;;;10.40;;
15340;SDS011;7770;52.158;5.372;2024-02-21T04:07:43;20.97;;;10.87;;
15340;SDS011;7770;52.158;5.372;2024-02-21T04:10:29;14.50;;;11.20;;
15340;SDS011;7770;52.158;5.372;2024-02-21T04:13:15;22.27;;;11.30;;
15340;SDS011;7770;52.158;5.372;2024-02-21T04:16:01;19.10;;;11.00;;
15340;SDS011;7770;52.158;5.372;2024-02-21T04:18:47;14.40;;;10.97;;
15340;SDS011;7770;52.158;5.372;2024-02-21T04:21:33;18.47;;;11.20;;
15340;SDS011;7770;52.158;5.372;2024-02-21T04:24:19;19.47;;;10.43;;
15340;SDS011;7770;52.158;5.372;2024-02-21T04:27:05;16.27;;;10.70;;
15340;SDS011;7770;52.158;5.372;2024-02-21T04:29:52;16.83;;;10.37;;
15340;SDS011;7770;52.158;5.372;2024-02-21T04:32:39;16.93;;;9.70;;
15340;SDS011;7770;52.158;5.372;2024-02-21T04:35:26;17.23;;;10.20;;
15340;SDS011;7770;52.158;5.372;2024-02-21T04:38:11;18.17;;;10.47;;
15340;SDS011;7770;52.158;5.372;2024-02-21T04:40:57;15.77;;;9.77;;
15340;SDS011;7770;52.158;5.372;2024-02-21T04:43:45;17.93;;;10.37;;
15340;SDS011;7770;52.158;5.372;2024-02-21T04:46:32;14.40;;;10.87;;
15340;SDS011;7770;52.158;5.372;2024-02-21T04:49:18;14.33;;;10.60;;
15340;SDS011;7770;52.158;5.372;2024-02-21T04:52:04;15.83;;;11.03;;
15340;SDS011;7770;52.158;5.372;2024-02-21T04:54:51;16.17;;;10.70;;
15340;SDS011;7770;52.158;5.372;2024-02-21T04:57:37;16.43;;;10.63;;
15340;SDS011;7770;52.158;5.372;2024-02-21T05:00:23;17.63;;;11.50;;
15340;SDS011;7770;52.158;5.372;2024-02-21T05:03:09;13.97;;;10.33;;
15340;SDS011;7770;52.158;5.372;2024-02-21T05:05:55;21.43;;;11.07;;
15340;SDS011;7770;52.158;5.372;2024-02-21T05:08:41;18.03;;;11.83;;
15340;SDS011;7770;52.158;5.372;2024-02-21T05:11:27;17.87;;;11.93;;
15340;SDS011;7770;52.158;5.372;2024-02-21T05:14:13;19.37;;;12.10;;
15340;SDS011;7770;52.158;5.372;2024-02-21T05:16:59;15.33;;;11.60;;
15340;SDS011;7770;52.158;5.372;2024-02-21T05:19:45;18.63;;;11.97;;
15340;SDS011;7770;52.158;5.372;2024-02-21T05:22:31;19.43;;;13.13;;
15340;SDS011;7770;52.158;5.372;2024-02-21T05:25:17;15.10;;;11.43;;
15340;SDS011;7770;52.158;5.372;2024-02-21T05:28:04;18.10;;;12.70;;
15340;SDS011;7770;52.158;5.372;2024-02-21T05:30:51;15.63;;;12.50;;
15340;SDS011;7770;52.158;5.372;2024-02-21T05:33:37;15.93;;;12.73;;
15340;SDS011;7770;52.158;5.372;2024-02-21T05:36:23;21.13;;;13.07;;
15340;SDS011;7770;52.158;5.372;2024-02-21T05:39:09;18.23;;;13.67;;
15340;SDS011;7770;52.158;5.372;2024-02-21T05:41:55;20.53;;;13.63;;
15340;SDS011;7770;52.158;5.372;2024-02-21T05:44:41;17.40;;;12.53;;
15340;SDS011;7770;52.158;5.372;2024-02-21T05:47:27;17.63;;;12.83;;
15340;SDS011;7770;52.158;5.372;2024-02-21T05:50:14;19.77;;;12.70;;
15340;SDS011;7770;52.158;5.372;2024-02-21T05:53:00;20.40;;;13.30;;
15340;SDS011;7770;52.158;5.372;2024-02-21T05:55:48;19.23;;;12.53;;
15340;SDS011;7770;52.158;5.372;2024-02-21T05:58:34;19.37;;;12.67;;
15340;SDS011;7770;52.158;5.372;2024-02-21T06:01:20;20.40;;;13.23;;
15340;SDS011;7770;52.158;5.372;2024-02-21T06:04:06;17.10;;;12.20;;
15340;SDS011;7770;52.158;5.372;2024-02-21T06:06:52;19.97;;;13.40;;
15340;SDS011;7770;52.158;5.372;2024-02-21T06:09:39;18.27;;;13.27;;
15340;SDS011;7770;52.158;5.372;2024-02-21T06:12:25;18.87;;;13.27;;
15340;SDS011;7770;52.158;5.372;2024-02-21T06:15:11;18.33;;;12.57;;
15340;SDS011;7770;52.158;5.372;2024-02-21T06:17:57;19.03;;;13.53;;
15340;SDS011;7770;52.158;5.372;2024-02-21T06:20:43;20.40;;;13.50;;
15340;SDS011;7770;52.158;5.372;2024-02-21T06:23:29;17.53;;;13.97;;
15340;SDS011;7770;52.158;5.372;2024-02-21T06:26:15;21.97;;;14.73;;
15340;SDS011;7770;52.158;5.372;2024-02-21T06:29:01;19.57;;;14.87;;
15340;SDS011;7770;52.158;5.372;2024-02-21T06:31:47;20.07;;;15.00;;
15340;SDS011;7770;52.158;5.372;2024-02-21T06:34:33;18.57;;;15.10;;
15340;SDS011;7770;52.158;5.372;2024-02-21T06:37:20;19.77;;;15.93;;
15340;SDS011;7770;52.158;5.372;2024-02-21T06:40:06;19.37;;;15.80;;
15340;SDS011;7770;52.158;5.372;2024-02-21T06:42:52;23.43;;;16.43;;
15340;SDS011;7770;52.158;5.372;2024-02-21T06:45:38;27.37;;;15.27;;
15340;SDS011;7770;52.158;5.372;2024-02-21T06:48:24;22.50;;;18.27;;
15340;SDS011;7770;52.158;5.372;2024-02-21T06:51:10;23.37;;;18.53;;
15340;SDS011;7770;52.158;5.372;2024-02-21T06:53:56;29.37;;;19.47;;
15340;SDS011;7770;52.158;5.372;2024-02-21T06:56:42;27.57;;;18.50;;
15340;SDS011;7770;52.158;5.372;2024-02-21T06:59:28;27.47;;;19.67;;
15340;SDS011;7770;52.158;5.372;2024-02-21T07:02:14;28.23;;;18.83;;
15340;SDS011;7770;52.158;5.372;2024-02-21T07:05:00;26.53;;;19.80;;
15340;SDS011;7770;52.158;5.372;2024-02-21T07:07:46;27.93;;;20.90;;
15340;SDS011;7770;52.158;5.372;2024-02-21T07:10:32;31.00;;;20.57;;
15340;SDS011;7770;52.158;5.372;2024-02-21T07:13:18;29.43;;;21.40;;
15340;SDS011;7770;52.158;5.372;2024-02-21T07:16:06;27.67;;;20.87;;
15340;SDS011;7770;52.158;5.372;2024-02-21T07:18:52;32.10;;;22.13;;
15340;SDS011;7770;52.158;5.372;2024-02-21T07:21:38;34.47;;;23.27;;
15340;SDS011;7770;52.158;5.372;2024-02-21T07:24:26;26.60;;;22.47;;
15340;SDS011;7770;52.158;5.372;2024-02-21T07:27:13;32.80;;;22.03;;
15340;SDS011;7770;52.158;5.372;2024-02-21T07:30:00;28.83;;;21.70;;
15340;SDS011;7770;52.158;5.372;2024-02-21T07:32:49;29.23;;;20.80;;
15340;SDS011;7770;52.158;5.372;2024-02-21T07:35:36;28.53;;;20.40;;
15340;SDS011;7770;52.158;5.372;2024-02-21T07:38:26;30.30;;;21.47;;
15340;SDS011;7770;52.158;5.372;2024-02-21T07:41:12;31.37;;;20.73;;
15340;SDS011;7770;52.158;5.372;2024-02-21T07:43:58;27.60;;;20.40;;
15340;SDS011;7770;52.158;5.372;2024-02-21T07:46:44;32.87;;;20.23;;
15340;SDS011;7770;52.158;5.372;2024-02-21T07:49:30;29.63;;;19.43;;
15340;SDS011;7770;52.158;5.372;2024-02-21T07:52:16;26.37;;;18.90;;
15340;SDS011;7770;52.158;5.372;2024-02-21T07:55:03;25.30;;;18.03;;
15340;SDS011;7770;52.158;5.372;2024-02-21T07:57:49;26.83;;;17.13;;
15340;SDS011;7770;52.158;5.372;2024-02-21T08:00:35;24.67;;;17.53;;
15340;SDS011;7770;52.158;5.372;2024-02-21T08:03:21;26.53;;;17.13;;
15340;SDS011;7770;52.158;5.372;2024-02-21T08:06:11;27.50;;;17.33;;
15340;SDS011;7770;52.158;5.372;2024-02-21T08:08:58;24.97;;;16.57;;
15340;SDS011;7770;52.158;5.372;2024-02-21T08:11:45;24.47;;;15.77;;
15340;SDS011;7770;52.158;5.372;2024-02-21T08:14:31;23.47;;;16.00;;
15340;SDS011;7770;52.158;5.372;2024-02-21T08:17:17;23.17;;;15.97;;
15340;SDS011;7770;52.158;5.372;2024-02-21T08:20:04;22.13;;;15.80;;
15340;SDS011;7770;52.158;5.372;2024-02-21T08:22:50;27.40;;;16.37;;
15340;SDS011;7770;52.158;5.372;2024-02-21T08:25:36;22.47;;;15.70;;
15340;SDS011;7770;52.158;5.372;2024-02-21T08:28:23;23.50;;;16.37;;
15340;SDS011;7770;52.158;5.372;2024-02-21T08:31:09;24.37;;;16.23;;
15340;SDS011;7770;52.158;5.372;2024-02-21T08:33:55;23.00;;;15.40;;
15340;SDS011;7770;52.158;5.372;2024-02-21T08:36:41;23.00;;;15.70;;
15340;SDS011;7770;52.158;5.372;2024-02-21T08:39:28;21.47;;;17.63;;
15340;SDS011;7770;52.158;5.372;2024-02-21T08:42:15;22.73;;;16.97;;
15340;SDS011;7770;52.158;5.372;2024-02-21T08:45:02;25.07;;;18.33;;
15340;SDS011;7770;52.158;5.372;2024-02-21T08:47:49;21.37;;;17.00;;
15340;SDS011;7770;52.158;5.372;2024-02-21T08:50:35;22.43;;;17.60;;
15340;SDS011;7770;52.158;5.372;2024-02-21T08:53:21;23.43;;;18.17;;
15340;SDS011;7770;52.158;5.372;2024-02-21T08:56:07;28.10;;;17.97;;
15340;SDS011;7770;52.158;5.372;2024-02-21T08:58:53;27.43;;;18.10;;
15340;SDS011;7770;52.158;5.372;2024-02-21T09:01:39;24.30;;;16.70;;
15340;SDS011;7770;52.158;5.372;2024-02-21T09:04:25;24.67;;;16.97;;
15340;SDS011;7770;52.158;5.372;2024-02-21T09:07:11;28.10;;;18.50;;
15340;SDS011;7770;52.158;5.372;2024-02-21T09:09:57;21.47;;;16.03;;
15340;SDS011;7770;52.158;5.372;2024-02-21T09:12:43;24.73;;;17.07;;
15340;SDS011;7770;52.158;5.372;2024-02-21T09:15:29;22.23;;;15.70;;
15340;SDS011;7770;52.158;5.372;2024-02-21T09:18:15;23.17;;;16.77;;
15340;SDS011;7770;52.158;5.372;2024-02-21T09:21:02;22.37;;;14.63;;
15340;SDS011;7770;52.158;5.372;2024-02-21T09:23:48;19.47;;;14.20;;
15340;SDS011;7770;52.158;5.372;2024-02-21T09:26:34;20.30;;;14.43;;
15340;SDS011;7770;52.158;5.372;2024-02-21T09:29:20;18.27;;;14.17;;
15340;SDS011;7770;52.158;5.372;2024-02-21T09:32:06;18.37;;;13.83;;
15340;SDS011;7770;52.158;5.372;2024-02-21T09:34:52;21.57;;;13.70;;
15340;SDS011;7770;52.158;5.372;2024-02-21T09:37:39;18.20;;;13.50;;
15340;SDS011;7770;52.158;5.372;2024-02-21T09:40:25;17.00;;;13.93;;
15340;SDS011;7770;52.158;5.372;2024-02-21T09:43:12;19.03;;;13.03;;
15340;SDS011;7770;52.158;5.372;2024-02-21T09:46:03;16.80;;;12.37;;
15340;SDS011;7770;52.158;5.372;2024-02-21T09:49:03;17.47;;;13.20;;
15340;SDS011;7770;52.158;5.372;2024-02-21T09:52:02;18.63;;;12.67;;
15340;SDS011;7770;52.158;5.372;2024-02-21T09:54:51;17.50;;;11.77;;
15340;SDS011;7770;52.158;5.372;2024-02-21T09:57:38;16.90;;;12.20;;
15340;SDS011;7770;52.158;5.372;2024-02-21T10:00:25;13.93;;;11.07;;
15340;SDS011;7770;52.158;5.372;2024-02-21T10:03:11;14.27;;;11.13;;
15340;SDS011;7770;52.158;5.372;2024-02-21T10:05:58;15.50;;;11.60;;
15340;SDS011;7770;52.158;5.372;2024-02-21T10:08:51;14.13;;;10.67;;
15340;SDS011;7770;52.158;5.372;2024-02-21T10:11:39;14.87;;;10.50;;
15340;SDS011;7770;52.158;5.372;2024-02-21T10:14:25;14.37;;;10.70;;
15340;SDS011;7770;52.158;5.372;2024-02-21T10:17:17;14.20;;;10.47;;
15340;SDS011;7770;52.158;5.372;2024-02-21T10:20:09;12.57;;;11.07;;
15340;SDS011;7770;52.158;5.372;2024-02-21T10:23:02;14.67;;;10.20;;
15340;SDS011;7770;52.158;5.372;2024-02-21T10:25:53;14.40;;;10.10;;
15340;SDS011;7770;52.158;5.372;2024-02-21T10:28:39;14.87;;;10.53;;
15340;SDS011;7770;52.158;5.372;2024-02-21T10:31:31;13.50;;;10.27;;
15340;SDS011;7770;52.158;5.372;2024-02-21T10:34:17;13.47;;;10.20;;
15340;SDS011;7770;52.158;5.372;2024-02-21T10:37:07;13.80;;;10.83;;
15340;SDS011;7770;52.158;5.372;2024-02-21T10:39:55;10.57;;;9.47;;
15340;SDS011;7770;52.158;5.372;2024-02-21T10:42:42;11.67;;;9.57;;
15340;SDS011;7770;52.158;5.372;2024-02-21T10:45:30;10.63;;;9.00;;
15340;SDS011;7770;52.158;5.372;2024-02-21T10:48:20;10.00;;;8.43;;
15340;SDS011;7770;52.158;5.372;2024-02-21T10:51:17;12.80;;;8.90;;
15340;SDS011;7770;52.158;5.372;2024-02-21T10:54:13;12.10;;;8.87;;
15340;SDS011;7770;52.158;5.372;2024-02-21T10:57:19;14.33;;;8.50;;
15340;SDS011;7770;52.158;5.372;2024-02-21T11:00:07;9.47;;;8.47;;
15340;SDS011;7770;52.158;5.372;2024-02-21T11:02:58;8.00;;;6.43;;
15340;SDS011;7770;52.158;5.372;2024-02-21T11:05:44;10.30;;;8.20;;
15340;SDS011;7770;52.158;5.372;2024-02-21T11:08:31;9.70;;;8.00;;
15340;SDS011;7770;52.158;5.372;2024-02-21T11:11:17;9.83;;;8.20;;
15340;SDS011;7770;52.158;5.372;2024-02-21T11:14:06;9.33;;;8.00;;
15340;SDS011;7770;52.158;5.372;2024-02-21T11:17:19;9.63;;;8.60;;
15340;SDS011;7770;52.158;5.372;2024-02-21T11:20:15;12.20;;;9.47;;
15340;SDS011;7770;52.158;5.372;2024-02-21T11:23:01;11.33;;;9.33;;
15340;SDS011;7770;52.158;5.372;2024-02-21T11:25:47;11.33;;;9.43;;
15340;SDS011;7770;52.158;5.372;2024-02-21T11:28:33;11.23;;;9.53;;
15340;SDS011;7770;52.158;5.372;2024-02-21T11:31:21;12.33;;;9.90;;
15340;SDS011;7770;52.158;5.372;2024-02-21T11:34:11;12.00;;;10.60;;
15340;SDS011;7770;52.158;5.372;2024-02-21T11:36:57;11.73;;;10.53;;
15340;SDS011;7770;52.158;5.372;2024-02-21T11:39:43;11.73;;;10.17;;
15340;SDS011;7770;52.158;5.372;2024-02-21T11:42:30;11.67;;;10.43;;
15340;SDS011;7770;52.158;5.372;2024-02-21T11:45:16;13.10;;;10.57;;
15340;SDS011;7770;52.158;5.372;2024-02-21T11:48:03;11.90;;;10.77;;
15340;SDS011;7770;52.158;5.372;2024-02-21T11:50:52;12.10;;;10.60;;
15340;SDS011;7770;52.158;5.372;2024-02-21T11:53:41;11.93;;;10.10;;
15340;SDS011;7770;52.158;5.372;2024-02-21T11:56:28;12.43;;;10.73;;
15340;SDS011;7770;52.158;5.372;2024-02-21T11:59:14;12.20;;;10.93;;
15340;SDS011;7770;52.158;5.372;2024-02-21T12:02:00;12.53;;;10.60;;
15340;SDS011;7770;52.158;5.372;2024-02-21T12:04:48;13.27;;;10.57;;
15340;SDS011;7770;52.158;5.372;2024-02-21T12:07:36;12.63;;;10.40;;
15340;SDS011;7770;52.158;5.372;2024-02-21T12:10:28;12.63;;;10.77;;
15340;SDS011;7770;52.158;5.372;2024-02-21T12:13:14;12.37;;;10.90;;
15340;SDS011;7770;52.158;5.372;2024-02-21T12:16:00;13.27;;;10.27;;
15340;SDS011;7770;52.158;5.372;2024-02-21T12:18:46;14.03;;;10.60;;
15340;SDS011;7770;52.158;5.372;2024-02-21T12:21:33;11.20;;;10.10;;
15340;SDS011;7770;52.158;5.372;2024-02-21T12:24:26;10.73;;;9.63;;
15340;SDS011;7770;52.158;5.372;2024-02-21T12:27:14;11.53;;;9.87;;
15340;SDS011;7770;52.158;5.372;2024-02-21T12:30:00;11.83;;;9.70;;
15340;SDS011;7770;52.158;5.372;2024-02-21T12:32:46;11.67;;;10.00;;
15340;SDS011;7770;52.158;5.372;2024-02-21T12:35:33;10.67;;;9.43;;
15340;SDS011;7770;52.158;5.372;2024-02-21T12:38:20;12.10;;;9.33;;
15340;SDS011;7770;52.158;5.372;2024-02-21T12:41:06;10.73;;;9.63;;
15340;SDS011;7770;52.158;5.372;2024-02-21T12:43:53;11.13;;;9.30;;
15340;SDS011;7770;52.158;5.372;2024-02-21T12:46:39;12.03;;;9.90;;
15340;SDS011;7770;52.158;5.372;2024-02-21T12:49:25;10.77;;;9.17;;
15340;SDS011;7770;52.158;5.372;2024-02-21T12:52:14;11.47;;;9.20;;
15340;SDS011;7770;52.158;5.372;2024-02-21T12:55:01;11.57;;;9.33;;
15340;SDS011;7770;52.158;5.372;2024-02-21T12:57:47;11.33;;;9.87;;
15340;SDS011;7770;52.158;5.372;2024-02-21T13:00:34;12.23;;;9.17;;
15340;SDS011;7770;52.158;5.372;2024-02-21T13:03:20;11.87;;;9.03;;
15340;SDS011;7770;52.158;5.372;2024-02-21T13:06:06;10.30;;;8.80;;
15340;SDS011;7770;52.158;5.372;2024-02-21T13:08:55;10.67;;;8.77;;
15340;SDS011;7770;52.158;5.372;2024-02-21T13:11:41;9.40;;;8.20;;
15340;SDS011;7770;52.158;5.372;2024-02-21T13:14:30;12.00;;;8.07;;
15340;SDS011;7770;52.158;5.372;2024-02-21T13:17:18;10.13;;;7.93;;
15340;SDS011;7770;52.158;5.372;2024-02-21T13:20:04;10.37;;;7.60;;
15340;SDS011;7770;52.158;5.372;2024-02-21T13:22:51;9.47;;;8.03;;
15340;SDS011;7770;52.158;5.372;2024-02-21T13:25:37;11.40;;;7.73;;
15340;SDS011;7770;52.158;5.372;2024-02-21T13:28:23;8.80;;;7.90;;
15340;SDS011;7770;52.158;5.372;2024-02-21T13:31:09;12.07;;;7.73;;
15340;SDS011;7770;52.158;5.372;2024-02-21T13:33:55;10.93;;;8.20;;
15340;SDS011;7770;52.158;5.372;2024-02-21T13:36:41;10.73;;;7.93;;
15340;SDS011;7770;52.158;5.372;2024-02-21T13:39:27;10.73;;;8.47;;
15340;SDS011;7770;52.158;5.372;2024-02-21T13:42:13;12.23;;;8.17;;
15340;SDS011;7770;52.158;5.372;2024-02-21T13:44:59;11.70;;;7.93;;
15340;SDS011;7770;52.158;5.372;2024-02-21T13:47:45;10.03;;;8.30;;
15340;SDS011;7770;52.158;5.372;2024-02-21T13:50:31;10.00;;;8.10;;
15340;SDS011;7770;52.158;5.372;2024-02-21T13:53:17;9.30;;;7.73;;
15340;SDS011;7770;52.158;5.372;2024-02-21T13:56:04;14.43;;;8.40;;
15340;SDS011;7770;52.158;5.372;2024-02-21T13:58:50;8.90;;;7.83;;
15340;SDS011;7770;52.158;5.372;2024-02-21T14:01:36;10.93;;;8.17;;
15340;SDS011;7770;52.158;5.372;2024-02-21T14:04:22;11.03;;;8.07;;
15340;SDS011;7770;52.158;5.372;2024-02-21T14:07:09;12.07;;;7.80;;
15340;SDS011;7770;52.158;5.372;2024-02-21T14:09:55;9.07;;;8.03;;
15340;SDS011;7770;52.158;5.372;2024-02-21T14:12:41;9.87;;;7.87;;
15340;SDS011;7770;52.158;5.372;2024-02-21T14:15:27;10.10;;;7.70;;
15340;SDS011;7770;52.158;5.372;2024-02-21T14:18:13;10.47;;;7.93;;
15340;SDS011;7770;52.158;5.372;2024-02-21T14:20:59;12.00;;;8.00;;
15340;SDS011;7770;52.158;5.372;2024-02-21T14:23:45;13.43;;;8.43;;
15340;SDS011;7770;52.158;5.372;2024-02-21T14:26:31;11.73;;;7.60;;
15340;SDS011;7770;52.158;5.372;2024-02-21T14:29:17;11.80;;;7.70;;
15340;SDS011;7770;52.158;5.372;2024-02-21T14:32:03;13.17;;;7.60;;
15340;SDS011;7770;52.158;5.372;2024-02-21T14:34:51;10.23;;;7.27;;
15340;SDS011;7770;52.158;5.372;2024-02-21T14:37:37;12.00;;;7.40;;
15340;SDS011;7770;52.158;5.372;2024-02-21T14:40:23;13.07;;;7.97;;
15340;SDS011;7770;52.158;5.372;2024-02-21T14:43:09;11.27;;;7.47;;
15340;SDS011;7770;52.158;5.372;2024-02-21T14:45:55;11.43;;;7.37;;
15340;SDS011;7770;52.158;5.372;2024-02-21T14:48:41;11.33;;;7.27;;
15340;SDS011;7770;52.158;5.372;2024-02-21T14:51:27;8.87;;;7.33;;
15340;SDS011;7770;52.158;5.372;2024-02-21T14:54:13;10.33;;;7.50;;
15340;SDS011;7770;52.158;5.372;2024-02-21T14:56:59;8.77;;;6.87;;
15340;SDS011;7770;52.158;5.372;2024-02-21T14:59:45;9.37;;;7.50;;
15340;SDS011;7770;52.158;5.372;2024-02-21T15:02:31;12.07;;;9.03;;
15340;SDS011;7770;52.158;5.372;2024-02-21T15:05:17;10.40;;;6.90;;
15340;SDS011;7770;52.158;5.372;2024-02-21T15:08:03;11.50;;;7.67;;
15340;SDS011;7770;52.158;5.372;2024-02-21T15:10:50;12.63;;;8.87;;
15340;SDS011;7770;52.158;5.372;2024-02-21T15:13:36;10.90;;;7.43;;
15340;SDS011;7770;52.158;5.372;2024-02-21T15:16:22;12.53;;;9.73;;
15340;SDS011;7770;52.158;5.372;2024-02-21T15:19:08;11.90;;;8.07;;
15340;SDS011;7770;52.158;5.372;2024-02-21T15:21:54;14.87;;;7.83;;
15340;SDS011;7770;52.158;5.372;2024-02-21T15:24:40;13.03;;;9.60;;
15340;SDS011;7770;52.158;5.372;2024-02-21T15:27:27;18.80;;;15.63;;
15340;SDS011;7770;52.158;5.372;2024-02-21T15:30:13;9.63;;;8.60;;
15340;SDS011;7770;52.158;5.372;2024-02-21T15:33:00;11.63;;;8.80;;
15340;SDS011;7770;52.158;5.372;2024-02-21T15:35:47;11.20;;;9.10;;
15340;SDS011;7770;52.158;5.372;2024-02-21T15:38:33;13.27;;;8.93;;
15340;SDS011;7770;52.158;5.372;2024-02-21T15:41:19;11.30;;;9.47;;
15340;SDS011;7770;52.158;5.372;2024-02-21T15:44:06;15.13;;;11.60;;
15340;SDS011;7770;52.158;5.372;2024-02-21T15:46:52;14.27;;;11.27;;
15340;SDS011;7770;52.158;5.372;2024-02-21T15:49:38;14.40;;;9.53;;
15340;SDS011;7770;52.158;5.372;2024-02-21T15:52:24;14.40;;;9.83;;
15340;SDS011;7770;52.158;5.372;2024-02-21T15:55:10;11.67;;;9.70;;
15340;SDS011;7770;52.158;5.372;2024-02-21T15:57:57;11.67;;;9.03;;
15340;SDS011;7770;52.158;5.372;2024-02-21T16:00:43;11.27;;;10.07;;
15340;SDS011;7770;52.158;5.372;2024-02-21T16:03:29;15.03;;;10.70;;
15340;SDS011;7770;52.158;5.372;2024-02-21T16:06:16;11.03;;;9.40;;
15340;SDS011;7770;52.158;5.372;2024-02-21T16:09:02;15.73;;;12.17;;
15340;SDS011;7770;52.158;5.372;2024-02-21T16:11:50;12.37;;;10.97;;
15340;SDS011;7770;52.158;5.372;2024-02-21T16:14:36;18.10;;;11.90;;
15340;SDS011;7770;52.158;5.372;2024-02-21T16:17:25;14.90;;;11.03;;
15340;SDS011;7770;52.158;5.372;2024-02-21T16:20:11;12.67;;;9.70;;
15340;SDS011;7770;52.158;5.372;2024-02-21T16:23:00;14.40;;;11.20;;
15340;SDS011;7770;52.158;5.372;2024-02-21T16:25:48;16.33;;;10.10;;
15340;SDS011;7770;52.158;5.372;2024-02-21T16:28:34;16.37;;;10.67;;
15340;SDS011;7770;52.158;5.372;2024-02-21T16:31:20;18.00;;;11.63;;
15340;SDS011;7770;52.158;5.372;2024-02-21T16:34:06;16.93;;;12.20;;
15340;SDS011;7770;52.158;5.372;2024-02-21T16:36:52;13.70;;;11.70;;